Time;durP1;ratioP1;P1;durP2;ratioP2;P2;SDS_P1;SDS_P2;PMS_P1;PMS_P2;Temp;Humidity;BMP_temperature;BMP_pressure;BME280_temperature;BME280_humidity;BME280_pressure;Samples;Min_cycle;Max_cycle;Signal;HPM_P1;HPM_P2
2022/11/15 00:00:09;;;;;;;4.82;3.50;;;6.60;99.90;;;;;;5090707;28;20631;-76
2022/11/15 00:02:35;;;;;;;2.92;2.72;;;6.70;99.90;;;;;;5090193;28;20492;-74
2022/11/15 00:05:01;;;;;;;3.85;2.47;;;6.70;99.90;;;;;;5089015;28;20115;-76
2022/11/15 00:07:26;;;;;;;2.05;1.88;;;6.70;99.90;;;;;;5090455;28;20053;-76
2022/11/15 00:09:52;;;;;;;4.28;3.17;;;6.70;99.90;;;;;;5105814;28;20134;-76
2022/11/15 00:12:18;;;;;;;4.78;2.60;;;6.80;99.90;;;;;;5090225;28;20020;-76
2022/11/15 00:14:43;;;;;;;4.38;3.38;;;6.80;99.90;;;;;;5090346;28;20023;-78
2022/11/15 00:17:09;;;;;;;9.23;4.38;;;6.80;99.90;;;;;;5090972;28;20078;-77
2022/11/15 00:19:34;;;;;;;3.72;2.60;;;6.70;99.90;;;;;;5090051;28;20024;-75
2022/11/15 00:22:00;;;;;;;4.95;2.65;;;6.70;99.90;;;;;;5090351;28;20028;-76
2022/11/15 00:24:26;;;;;;;7.10;2.75;;;6.70;99.90;;;;;;5106687;28;20480;-78
2022/11/15 00:26:51;;;;;;;4.15;2.70;;;6.80;99.90;;;;;;5089856;28;20020;-75
2022/11/15 00:29:17;;;;;;;5.57;3.28;;;6.80;99.90;;;;;;5090640;28;20480;-76
2022/11/15 00:31:43;;;;;;;4.75;3.05;;;6.80;99.90;;;;;;5088255;28;20086;-76
2022/11/15 00:34:10;;;;;;;5.35;4.25;;;6.80;99.90;;;;;;5089691;28;20538;-76
2022/11/15 00:36:36;;;;;;;4.30;3.05;;;6.80;99.90;;;;;;5088167;28;20089;-77
2022/11/15 00:39:05;;;;;;;4.20;2.72;;;6.80;99.90;;;;;;5089693;28;20029;-76
2022/11/15 00:41:31;;;;;;;3.97;2.63;;;6.90;99.90;;;;;;5089149;28;20039;-76
2022/11/15 00:43:56;;;;;;;3.60;2.72;;;6.90;99.90;;;;;;5089678;28;20473;-77
2022/11/15 00:46:22;;;;;;;4.53;3.58;;;7.00;99.90;;;;;;5087641;28;20027;-75
2022/11/15 00:48:48;;;;;;;5.72;3.30;;;;;;;;;;5088896;28;20032;-76
2022/11/15 00:51:14;;;;;;;4.65;2.80;;;7.00;99.90;;;;;;5089427;28;20020;-76
2022/11/15 00:53:39;;;;;;;6.53;3.35;;;7.10;99.90;;;;;;5088659;28;20437;-76
2022/11/15 00:56:05;;;;;;;3.33;2.47;;;7.10;99.90;;;;;;5089314;28;20114;-76
2022/11/15 00:58:31;;;;;;;5.00;3.15;;;7.90;99.90;;;;;;5087531;28;20035;-82
2022/11/15 01:00:56;;;;;;;3.63;2.85;;;7.10;99.90;;;;;;5088812;28;20024;-76
2022/11/15 01:03:22;;;;;;;4.20;2.95;;;7.20;99.90;;;;;;5087356;28;20473;-76
2022/11/15 01:05:48;;;;;;;4.78;2.80;;;7.20;99.90;;;;;;5087914;28;20016;-76
2022/11/15 01:08:15;;;;;;;5.43;3.10;;;7.20;99.90;;;;;;5088666;28;20028;-76
2022/11/15 01:10:41;;;;;;;4.63;3.25;;;7.20;99.90;;;;;;5088829;28;20016;-76
2022/11/15 01:13:06;;;;;;;13.27;5.15;;;7.20;99.90;;;;;;5088692;28;20457;-78
2022/11/15 01:15:32;;;;;;;11.45;5.55;;;7.20;99.90;;;;;;5088385;28;20443;-76
2022/11/15 01:17:58;;;;;;;5.00;3.42;;;7.20;99.90;;;;;;5088490;28;20043;-76
2022/11/15 01:20:23;;;;;;;3.50;2.83;;;7.30;99.90;;;;;;5088168;28;20027;-76
2022/11/15 01:22:49;;;;;;;7.22;4.20;;;7.20;99.90;;;;;;5089735;28;20024;-76
2022/11/15 01:25:14;;;;;;;5.40;3.50;;;7.30;99.90;;;;;;5088322;28;20050;-76
2022/11/15 01:27:40;;;;;;;4.60;2.97;;;7.30;99.90;;;;;;5087347;28;20489;-77
2022/11/15 01:30:08;;;;;;;2.90;2.53;;;7.30;99.90;;;;;;5088644;28;20024;-76
2022/11/15 01:32:33;;;;;;;8.07;4.65;;;7.30;99.90;;;;;;5088460;28;20493;-75
2022/11/15 01:34:59;;;;;;;5.22;3.08;;;7.60;99.90;;;;;;5087395;28;20048;-76
2022/11/15 01:37:25;;;;;;;5.68;4.05;;;7.40;99.90;;;;;;5088393;28;20504;-77
2022/11/15 01:39:50;;;;;;;8.43;4.40;;;7.30;99.90;;;;;;5103594;28;20036;-76
2022/11/15 01:42:18;;;;;;;5.32;3.42;;;7.40;99.90;;;;;;5103492;28;20457;-76
2022/11/15 01:44:50;;;;;;;9.40;4.50;;;9.90;99.90;;;;;;5088202;28;20035;-76
2022/11/15 01:47:23;;;;;;;9.00;4.50;;;7.50;99.90;;;;;;5088380;28;20442;-76
2022/11/15 01:50:03;;;;;;;7.57;4.30;;;7.50;99.90;;;;;;5087960;28;20024;-75
2022/11/15 01:52:31;;;;;;;5.57;3.95;;;7.50;99.90;;;;;;5087911;28;20108;-75
2022/11/15 01:55:16;;;;;;;7.35;4.18;;;7.60;99.90;;;;;;5086652;28;20024;-80
2022/11/15 01:57:44;;;;;;;3.35;3.05;;;7.60;99.90;;;;;;5087746;28;20056;-75
2022/11/15 02:00:10;;;;;;;6.90;3.45;;;7.70;99.90;;;;;;5087871;28;20046;-75
2022/11/15 02:02:37;;;;;;;6.00;3.22;;;7.80;99.90;;;;;;5087595;28;20024;-76
2022/11/15 02:05:03;;;;;;;5.70;3.90;;;7.70;99.90;;;;;;5087557;28;20376;-75
2022/11/15 02:07:31;;;;;;;6.85;3.83;;;7.60;99.90;;;;;;5087881;28;20095;-75
2022/11/15 02:10:04;;;;;;;4.82;3.28;;;7.60;99.90;;;;;;5086046;28;20396;-75
2022/11/15 02:12:29;;;;;;;3.97;3.13;;;7.60;99.90;;;;;;5086127;28;20028;-75
2022/11/15 02:14:56;;;;;;;5.25;3.50;;;7.70;99.90;;;;;;5087259;28;20378;-75
2022/11/15 02:17:21;;;;;;;5.20;3.65;;;7.60;99.90;;;;;;5087471;28;20393;-76
2022/11/15 02:20:05;;;;;;;5.80;3.38;;;7.40;99.90;;;;;;5087251;28;20027;-75
2022/11/15 02:22:45;;;;;;;4.60;3.35;;;7.70;99.90;;;;;;5087732;28;20035;-76
2022/11/15 02:25:37;;;;;;;6.45;3.33;;;7.70;99.90;;;;;;5085737;28;20069;-76
2022/11/15 02:28:35;;;;;;;3.33;2.92;;;7.70;99.90;;;;;;5085720;28;20020;-75
2022/11/15 02:31:18;;;;;;;4.10;3.35;;;7.70;99.90;;;;;;5066769;28;20047;-74
2022/11/15 02:34:15;;;;;;;4.25;3.08;;;7.80;99.90;;;;;;5065258;28;20093;-76
2022/11/15 02:37:00;;;;;;;3.90;3.22;;;7.70;99.90;;;;;;5060798;28;20048;-75
2022/11/15 02:39:39;;;;;;;8.27;3.03;;;7.60;99.90;;;;;;5067048;28;20037;-77
2022/11/15 02:45:06;;;;;;;6.50;3.78;;;7.60;99.90;;;;;;5065176;28;20492;-76
2022/11/15 02:47:36;;;;;;;9.13;3.75;;;7.60;99.90;;;;;;5083281;28;20367;-76
2022/11/15 02:50:07;;;;;;;5.60;3.15;;;7.60;99.90;;;;;;5067921;28;20025;-75
2022/11/15 02:52:33;;;;;;;4.43;3.38;;;7.70;99.90;;;;;;5069527;28;20017;-75
2022/11/15 02:55:00;;;;;;;3.50;2.55;;;7.70;99.90;;;;;;5068466;28;20024;-75
2022/11/15 02:57:51;;;;;;;8.10;2.72;;;7.70;99.90;;;;;;5068500;28;20035;-75
2022/11/15 03:00:21;;;;;;;3.85;3.38;;;7.80;99.90;;;;;;5067141;28;20051;-75
2022/11/15 03:02:53;;;;;;;4.40;3.97;;;7.70;99.90;;;;;;5069010;28;20020;-75
2022/11/15 03:05:44;;;;;;;4.07;3.42;;;7.70;99.90;;;;;;5068237;28;20374;-75
2022/11/15 03:08:37;;;;;;;10.10;3.00;;;7.70;99.90;;;;;;5069402;28;20377;-75
2022/11/15 03:11:14;;;;;;;5.53;3.67;;;7.70;99.90;;;;;;5069604;28;20269;-75
2022/11/15 03:14:13;;;;;;;7.35;4.45;;;7.70;99.90;;;;;;5068148;28;20025;-75
2022/11/15 03:16:49;;;;;;;6.35;3.45;;;7.70;99.90;;;;;;5069381;28;20073;-75
2022/11/15 03:19:27;;;;;;;4.35;3.40;;;7.70;99.90;;;;;;5069469;28;20032;-75
2022/11/15 03:21:57;;;;;;;7.78;3.85;;;7.70;99.90;;;;;;5069373;28;20029;-75
2022/11/15 03:24:25;;;;;;;4.38;2.95;;;7.70;99.90;;;;;;5085294;28;20484;-75
2022/11/15 03:26:53;;;;;;;5.30;3.13;;;7.70;99.90;;;;;;5084990;28;20485;-75
2022/11/15 03:29:41;;;;;;;7.18;4.15;;;7.70;99.90;;;;;;5069416;28;20029;-75
2022/11/15 03:32:12;;;;;;;5.97;4.28;;;7.70;99.90;;;;;;5069386;28;20123;-75
2022/11/15 03:34:51;;;;;;;4.80;3.28;;;7.70;99.90;;;;;;5068977;28;20053;-76
2022/11/15 03:37:22;;;;;;;4.38;3.05;;;7.70;99.90;;;;;;5068009;28;20388;-75
2022/11/15 03:39:48;;;;;;;6.03;4.18;;;7.70;99.90;;;;;;5084848;28;20028;-75
2022/11/15 03:42:31;;;;;;;4.05;3.03;;;7.70;99.90;;;;;;5069252;28;20060;-75
2022/11/15 03:45:12;;;;;;;6.80;3.35;;;7.80;99.90;;;;;;5067869;28;20051;-76
2022/11/15 03:47:53;;;;;;;6.07;3.28;;;7.80;99.90;;;;;;5069176;28;20025;-75
2022/11/15 03:50:21;;;;;;;6.80;4.07;;;7.70;99.90;;;;;;5069303;28;20351;-75
2022/11/15 03:52:48;;;;;;;4.68;3.17;;;7.70;99.90;;;;;;5067837;28;20039;-75
2022/11/15 03:55:17;;;;;;;7.38;3.20;;;7.60;99.90;;;;;;5069243;28;20035;-75
2022/11/15 03:57:43;;;;;;;3.92;3.00;;;7.70;99.90;;;;;;5069037;28;20463;-75
2022/11/15 04:00:11;;;;;;;3.65;3.15;;;7.70;99.90;;;;;;5069008;28;20052;-75
2022/11/15 04:02:36;;;;;;;5.07;3.20;;;7.70;99.90;;;;;;5069059;28;20024;-75
2022/11/15 04:05:03;;;;;;;9.88;3.60;;;7.70;99.90;;;;;;5068683;28;20032;-75
2022/11/15 04:07:28;;;;;;;4.95;3.13;;;7.70;99.90;;;;;;5068167;28;20103;-75
2022/11/15 04:10:03;;;;;;;5.32;3.58;;;7.70;99.90;;;;;;5068897;28;20100;-75
2022/11/15 04:12:30;;;;;;;4.35;3.08;;;7.80;99.90;;;;;;5069191;28;20028;-75
2022/11/15 04:15:13;;;;;;;4.55;2.80;;;7.80;99.90;;;;;;5072589;28;20025;-74
2022/11/15 04:17:40;;;;;;;7.70;4.38;;;7.80;99.90;;;;;;5072216;28;20452;-75
2022/11/15 04:25:43;;;;;;;4.43;3.70;;;7.80;99.90;;;;;;5070985;28;20032;-75
2022/11/15 04:28:09;;;;;;;5.40;3.85;;;7.80;99.90;;;;;;5070591;28;20747;-75
2022/11/15 04:30:35;;;;;;;3.83;2.92;;;7.70;99.90;;;;;;5070712;28;20021;-75
2022/11/15 04:33:01;;;;;;;6.40;3.22;;;7.80;99.90;;;;;;5070537;28;20035;-75
2022/11/15 04:35:27;;;;;;;5.10;3.65;;;7.70;99.90;;;;;;5071032;28;20053;-75
2022/11/15 04:37:53;;;;;;;4.13;2.85;;;7.70;99.90;;;;;;5071989;28;20033;-75
2022/11/15 04:40:19;;;;;;;5.00;3.22;;;7.80;99.90;;;;;;5072042;28;20020;-75
2022/11/15 04:42:44;;;;;;;4.35;3.22;;;7.80;99.90;;;;;;5072077;28;20047;-75
2022/11/15 04:45:10;;;;;;;5.60;3.95;;;7.80;99.90;;;;;;5071776;28;20285;-75
2022/11/15 04:47:36;;;;;;;4.55;3.42;;;6.80;99.90;;;;;;5071282;28;20461;-75
2022/11/15 04:50:02;;;;;;;13.95;3.88;;;7.70;99.90;;;;;;5071646;28;20031;-75
2022/11/15 04:52:28;;;;;;;6.68;3.55;;;7.70;99.90;;;;;;5071747;28;20051;-75
2022/11/15 04:54:53;;;;;;;3.45;2.53;;;7.70;99.90;;;;;;5071658;28;20100;-75
2022/11/15 04:57:19;;;;;;;3.60;2.40;;;7.80;99.90;;;;;;5071441;28;20041;-75
2022/11/15 04:59:45;;;;;;;4.80;2.55;;;7.80;99.90;;;;;;5072016;28;20036;-75
2022/11/15 05:02:11;;;;;;;6.00;3.15;;;7.70;99.90;;;;;;5071828;28;20025;-75
2022/11/15 05:04:37;;;;;;;8.75;2.67;;;7.70;99.90;;;;;;5071658;28;20028;-75
2022/11/15 05:07:05;;;;;;;3.30;2.75;;;7.70;99.90;;;;;;5071770;28;20094;-75
2022/11/15 05:09:31;;;;;;;8.35;3.05;;;7.70;99.90;;;;;;5071447;28;20051;-75
2022/11/15 05:11:57;;;;;;;4.20;3.05;;;7.70;99.90;;;;;;5071260;28;20060;-75
2022/11/15 05:14:22;;;;;;;4.00;2.78;;;7.70;99.90;;;;;;5071310;28;20051;-75
2022/11/15 05:16:49;;;;;;;4.40;2.63;;;7.60;99.90;;;;;;5086934;28;20024;-75
2022/11/15 05:19:15;;;;;;;3.63;2.40;;;7.60;99.90;;;;;;5071106;28;20028;-75
2022/11/15 05:21:40;;;;;;;6.32;2.60;;;7.70;99.90;;;;;;5071328;28;20020;-75
2022/11/15 05:24:06;;;;;;;6.28;2.97;;;;;;;;;;5070821;28;20032;-75
2022/11/15 05:26:32;;;;;;;4.43;3.38;;;7.70;99.90;;;;;;5069835;28;20032;-75
2022/11/15 05:28:59;;;;;;;5.18;3.05;;;7.70;99.90;;;;;;5071222;28;20025;-75
2022/11/15 05:31:26;;;;;;;3.97;2.78;;;7.60;99.90;;;;;;5071048;28;20063;-75
2022/11/15 05:33:53;;;;;;;4.45;3.45;;;7.60;99.90;;;;;;5070680;28;20024;-75
2022/11/15 05:36:27;;;;;;;3.20;2.90;;;7.70;99.90;;;;;;5070812;28;20040;-75
2022/11/15 05:38:53;;;;;;;7.80;4.53;;;5.90;99.90;;;;;;5069555;28;20476;-74
2022/11/15 05:41:22;;;;;;;4.72;4.25;;;7.70;99.90;;;;;;5070917;28;20048;-75
2022/11/15 05:43:49;;;;;;;2.63;2.42;;;;;;;;;;5070844;28;20077;-75
2022/11/15 05:46:14;;;;;;;5.85;3.97;;;7.60;99.90;;;;;;5070716;28;20059;-75
2022/11/15 05:48:45;;;;;;;6.05;3.97;;;7.50;99.90;;;;;;5070312;28;20118;-75
2022/11/15 05:51:14;;;;;;;4.22;3.10;;;7.50;99.90;;;;;;5070600;28;20446;-75
2022/11/15 05:53:40;;;;;;;10.15;4.40;;;;;;;;;;5069225;28;20029;-75
2022/11/15 05:56:06;;;;;;;4.07;3.13;;;7.40;99.90;;;;;;5070667;28;20517;-75
2022/11/15 05:58:33;;;;;;;2.65;2.45;;;7.40;99.90;;;;;;5070531;28;20496;-75
2022/11/15 06:01:00;;;;;;;3.97;3.15;;;7.40;99.90;;;;;;5070836;28;20036;-75
2022/11/15 06:03:25;;;;;;;4.70;3.58;;;7.40;99.90;;;;;;5070433;28;20142;-75
2022/11/15 06:05:51;;;;;;;4.03;2.70;;;7.40;99.90;;;;;;5070090;28;20111;-75
2022/11/15 06:08:17;;;;;;;4.18;2.53;;;7.40;99.90;;;;;;5075014;28;20033;-75
2022/11/15 06:10:42;;;;;;;4.85;3.38;;;7.50;99.90;;;;;;5076741;28;20051;-75
2022/11/15 06:13:08;;;;;;;4.30;3.05;;;7.50;99.90;;;;;;5077174;28;20021;-75
2022/11/15 06:15:34;;;;;;;4.78;3.35;;;7.60;99.90;;;;;;5088353;28;20618;-74
2022/11/15 06:18:00;;;;;;;5.32;3.50;;;7.60;99.90;;;;;;5086785;28;20036;-75
2022/11/15 06:20:27;;;;;;;4.50;2.95;;;7.50;99.90;;;;;;5093448;28;20020;-75
2022/11/15 06:23:04;;;;;;;4.97;3.38;;;7.40;99.90;;;;;;5088891;28;20039;-75
2022/11/15 06:25:31;;;;;;;5.00;3.83;;;7.40;99.90;;;;;;5089355;28;20024;-75
2022/11/15 06:27:58;;;;;;;4.10;2.92;;;7.40;99.90;;;;;;5090056;28;20039;-76
2022/11/15 06:30:25;;;;;;;18.55;7.60;;;7.40;99.90;;;;;;5090267;28;20051;-76
2022/11/15 06:32:51;;;;;;;6.72;3.83;;;7.40;99.90;;;;;;5091906;28;20020;-76
2022/11/15 06:35:17;;;;;;;6.40;4.10;;;7.40;99.90;;;;;;5092641;28;20036;-77
2022/11/15 06:37:43;;;;;;;7.68;5.00;;;7.40;99.90;;;;;;5093246;28;20039;-76
2022/11/15 06:40:10;;;;;;;9.60;6.05;;;7.60;99.90;;;;;;5089761;28;20060;-76
2022/11/15 06:42:36;;;;;;;11.65;6.43;;;7.60;99.90;;;;;;5089027;28;20416;-77
2022/11/15 06:45:02;;;;;;;6.57;5.78;;;7.50;99.90;;;;;;5088165;28;20561;-76
2022/11/15 06:47:28;;;;;;;10.90;7.00;;;7.50;99.90;;;;;;5087825;28;20527;-76
2022/11/15 06:49:54;;;;;;;10.07;6.40;;;7.50;99.90;;;;;;5089247;28;20016;-76
2022/11/15 06:52:21;;;;;;;8.88;5.82;;;7.50;99.90;;;;;;5095248;28;20047;-76
2022/11/15 06:54:47;;;;;;;10.38;5.82;;;7.40;99.90;;;;;;5095090;28;20316;-77
2022/11/15 06:57:12;;;;;;;11.13;5.00;;;7.50;99.90;;;;;;5089143;28;20265;-75
2022/11/15 06:59:38;;;;;;;7.28;5.03;;;7.60;99.90;;;;;;5088510;28;20515;-76
2022/11/15 07:02:04;;;;;;;8.43;5.22;;;7.50;99.90;;;;;;5090257;28;20503;-76
2022/11/15 07:04:30;;;;;;;16.08;5.35;;;;;;;;;;5090159;28;20028;-77
2022/11/15 07:06:56;;;;;;;6.85;5.22;;;7.50;99.90;;;;;;5090264;28;20081;-76
2022/11/15 07:09:22;;;;;;;7.55;5.03;;;7.50;99.90;;;;;;5089766;28;20427;-76
2022/11/15 07:11:47;;;;;;;9.25;3.72;;;7.50;99.90;;;;;;5089784;28;20491;-77
2022/11/15 07:14:13;;;;;;;4.10;3.60;;;7.60;99.90;;;;;;5088486;28;20024;-76
2022/11/15 07:16:39;;;;;;;7.13;4.32;;;7.60;99.90;;;;;;5088016;28;20043;-76
2022/11/15 07:19:05;;;;;;;10.00;5.75;;;7.70;99.90;;;;;;5088202;28;20115;-76
2022/11/15 07:21:30;;;;;;;10.95;6.80;;;7.80;99.90;;;;;;5089651;28;20022;-76
2022/11/15 07:23:56;;;;;;;14.52;7.97;;;7.80;99.90;;;;;;5089671;28;20028;-76
2022/11/15 07:26:22;;;;;;;7.53;5.32;;;7.70;99.90;;;;;;5089626;28;20020;-76
2022/11/15 07:28:48;;;;;;;32.80;12.60;;;7.90;99.90;;;;;;5089716;28;20032;-76
2022/11/15 07:31:13;;;;;;;28.25;11.77;;;10.10;99.90;;;;;;5089488;28;20020;-76
2022/11/15 07:33:39;;;;;;;31.48;13.25;;;7.90;99.90;;;;;;5105062;28;20024;-76
2022/11/15 07:36:06;;;;;;;23.65;10.88;;;7.90;99.90;;;;;;5088514;28;20122;-76
2022/11/15 07:38:34;;;;;;;23.92;11.32;;;8.00;99.90;;;;;;5087873;28;20118;-77
2022/11/15 07:41:02;;;;;;;11.32;7.93;;;7.90;99.90;;;;;;5089230;28;20376;-77
2022/11/15 07:43:29;;;;;;;11.60;6.63;;;8.00;99.90;;;;;;5089301;28;20032;-76
2022/11/15 07:45:55;;;;;;;16.55;6.90;;;8.00;99.90;;;;;;5090855;28;20043;-76
2022/11/15 07:48:21;;;;;;;16.05;7.35;;;8.00;99.90;;;;;;5091501;28;20551;-76
2022/11/15 07:50:47;;;;;;;12.77;6.47;;;8.00;99.90;;;;;;5091777;28;20020;-76
2022/11/15 07:53:13;;;;;;;12.23;8.15;;;8.10;99.90;;;;;;5091623;28;20063;-76
2022/11/15 07:55:41;;;;;;;21.27;8.48;;;8.10;99.90;;;;;;5089993;28;20039;-76
2022/11/15 07:58:09;;;;;;;17.27;8.35;;;8.10;99.90;;;;;;5091237;28;20572;-75
2022/11/15 08:00:36;;;;;;;20.58;10.70;;;8.10;99.90;;;;;;5091375;28;20572;-76
2022/11/15 08:03:03;;;;;;;22.40;13.85;;;8.30;99.90;;;;;;5091102;28;20028;-77
2022/11/15 08:05:29;;;;;;;16.27;9.20;;;8.30;99.90;;;;;;5091287;28;20473;-76
2022/11/15 08:07:57;;;;;;;11.13;6.55;;;8.40;99.90;;;;;;5091674;28;20020;-76
2022/11/15 08:10:23;;;;;;;14.75;7.38;;;8.40;99.90;;;;;;5091775;28;20016;-75
2022/11/15 08:13:00;;;;;;;16.17;8.07;;;8.40;99.90;;;;;;5092705;28;20028;-76
2022/11/15 08:15:26;;;;;;;12.98;7.93;;;8.50;99.90;;;;;;5092964;28;20097;-76
2022/11/15 08:18:00;;;;;;;15.25;8.27;;;8.60;99.90;;;;;;5091360;28;20182;-77
2022/11/15 08:20:31;;;;;;;9.93;7.07;;;8.80;99.90;;;;;;5092819;28;20024;-76
2022/11/15 08:23:00;;;;;;;11.40;7.90;;;8.80;99.90;;;;;;5092724;28;20031;-76
2022/11/15 08:25:28;;;;;;;8.18;6.32;;;8.90;99.90;;;;;;5091330;28;20024;-76
2022/11/15 08:27:56;;;;;;;11.27;6.85;;;8.90;99.90;;;;;;5092640;28;20162;-76
2022/11/15 08:30:22;;;;;;;10.02;5.93;;;8.90;99.90;;;;;;5092544;28;20103;-76
2022/11/15 08:32:49;;;;;;;7.20;5.38;;;8.90;99.90;;;;;;5092191;28;20024;-75
2022/11/15 08:35:15;;;;;;;5.95;5.03;;;9.00;99.90;;;;;;5092570;28;20326;-76
2022/11/15 08:37:41;;;;;;;10.02;6.40;;;8.90;99.90;;;;;;5091211;28;20331;-75
2022/11/15 08:40:07;;;;;;;9.20;5.68;;;8.90;99.90;;;;;;5092469;28;20246;-76
2022/11/15 08:42:33;;;;;;;7.25;5.47;;;8.90;99.90;;;;;;5096887;28;20031;-76
2022/11/15 08:44:59;;;;;;;7.45;5.82;;;;;;;;;;5085673;28;20017;-77
2022/11/15 08:47:25;;;;;;;7.38;6.07;;;9.10;99.90;;;;;;5089678;28;20051;-75
2022/11/15 08:49:51;;;;;;;9.13;5.60;;;9.10;99.90;;;;;;5090736;28;20109;-77
2022/11/15 08:52:16;;;;;;;9.55;5.43;;;9.10;99.90;;;;;;5087424;28;20421;-76
2022/11/15 08:54:42;;;;;;;17.73;9.75;;;9.10;99.90;;;;;;5089185;28;20028;-76
2022/11/15 08:57:09;;;;;;;16.38;8.88;;;9.30;99.90;;;;;;5089521;28;20081;-75
2022/11/15 08:59:35;;;;;;;20.98;6.38;;;9.20;99.90;;;;;;5087612;28;20127;-76
2022/11/15 09:02:02;;;;;;;7.93;5.22;;;9.40;99.90;;;;;;5091369;28;20547;-77
2022/11/15 09:04:27;;;;;;;8.52;4.88;;;9.40;99.90;;;;;;5089866;28;20387;-75
2022/11/15 09:06:53;;;;;;;9.20;5.45;;;9.50;99.90;;;;;;5088057;28;20020;-75
2022/11/15 09:09:19;;;;;;;9.63;6.82;;;9.50;99.90;;;;;;5088538;28;20408;-76
2022/11/15 09:11:45;;;;;;;10.48;5.85;;;9.60;99.90;;;;;;5088351;28;20020;-75
2022/11/15 09:14:14;;;;;;;9.05;5.85;;;9.60;99.90;;;;;;5088621;28;20077;-75
2022/11/15 09:16:40;;;;;;;;;;;9.60;99.90;;;;;;5089823;28;20847;-80
2022/11/15 09:19:05;;;;;;;9.82;6.00;;;9.50;99.90;;;;;;5089195;28;19916;-78
2022/11/15 09:21:32;;;;;;;10.30;5.95;;;;;;;;;;5089827;28;20028;-76
2022/11/15 09:23:58;;;;;;;10.07;5.90;;;9.40;99.90;;;;;;5087113;28;20024;-76
2022/11/15 09:26:23;;;;;;;8.40;6.03;;;9.30;99.90;;;;;;5088793;28;20354;-76
2022/11/15 09:28:49;;;;;;;9.55;5.60;;;9.40;99.90;;;;;;5088765;28;20024;-75
2022/11/15 09:31:16;;;;;;;11.27;5.80;;;9.40;99.90;;;;;;5088491;28;20038;-77
2022/11/15 09:33:44;;;;;;;8.75;6.70;;;9.40;99.90;;;;;;5088236;28;20028;-80
2022/11/15 09:36:11;;;;;;;12.23;6.18;;;9.50;99.90;;;;;;5088214;28;20055;-74
2022/11/15 09:38:36;;;;;;;12.55;5.97;;;9.50;99.90;;;;;;5088042;28;20098;-77
2022/11/15 09:41:14;;;;;;;9.25;5.30;;;9.60;99.90;;;;;;5088495;28;20411;-75
2022/11/15 09:43:58;;;;;;;9.48;5.75;;;9.80;99.90;;;;;;5087966;28;20050;-78
2022/11/15 09:46:51;;;;;;;11.82;6.35;;;9.90;99.90;;;;;;5087812;28;20784;-76
2022/11/15 09:49:18;;;;;;;8.73;5.88;;;9.90;99.90;;;;;;5086340;28;20085;-76
2022/11/15 09:51:47;;;;;;;10.70;6.05;;;10.00;99.90;;;;;;5088347;28;20020;-76
2022/11/15 09:54:34;;;;;;;7.77;5.03;;;10.00;99.90;;;;;;5086433;28;20028;-75
2022/11/15 09:57:06;;;;;;;10.52;4.75;;;10.10;99.90;;;;;;5088367;28;20269;-76
2022/11/15 10:00:03;;;;;;;7.63;4.45;;;10.10;99.90;;;;;;5088359;28;20116;-74
2022/11/15 10:03:07;;;;;;;7.15;4.82;;;10.10;99.90;;;;;;5086289;28;20020;-76
2022/11/15 10:05:39;;;;;;;10.65;4.97;;;10.00;99.90;;;;;;5086843;28;20055;-76
2022/11/15 10:08:30;;;;;;;9.88;5.45;;;10.10;99.90;;;;;;5087963;28;20039;-76
2022/11/15 10:11:02;;;;;;;12.02;5.18;;;10.10;99.90;;;;;;5086242;28;20549;-74
2022/11/15 10:13:36;;;;;;;7.53;5.47;;;12.70;99.90;;;;;;5086143;28;20050;-75
2022/11/15 10:16:27;;;;;;;8.32;4.43;;;10.30;99.90;;;;;;5088231;28;20656;-81
2022/11/15 10:19:24;;;;;;;8.43;4.82;;;10.40;99.90;;;;;;5088026;28;20043;-80
2022/11/15 10:21:52;;;;;;;7.57;4.95;;;10.40;99.90;;;;;;5087484;28;20101;-75
2022/11/15 10:24:23;;;;;;;14.23;5.05;;;10.40;99.90;;;;;;5087336;28;20032;-75
2022/11/15 10:26:50;;;;;;;9.18;5.38;;;10.30;99.90;;;;;;5087754;28;20020;-75
2022/11/15 10:29:20;;;;;;;7.45;4.30;;;10.20;99.90;;;;;;5087130;28;20109;-76
2022/11/15 10:31:47;;;;;;;15.68;5.22;;;10.30;99.90;;;;;;5087376;28;20020;-76
2022/11/15 10:34:21;;;;;;;8.48;4.28;;;10.40;99.90;;;;;;5086978;28;20135;-76
2022/11/15 10:36:55;;;;;;;9.77;4.60;;;10.60;99.90;;;;;;5087139;28;20020;-76
2022/11/15 10:39:21;;;;;;;8.52;4.38;;;10.60;99.90;;;;;;5085713;28;20043;-76
2022/11/15 10:41:48;;;;;;;5.55;4.20;;;10.70;99.90;;;;;;5087166;28;20048;-75
2022/11/15 10:44:20;;;;;;;4.47;3.20;;;10.90;99.90;;;;;;5086810;28;20024;-76
2022/11/15 10:47:03;;;;;;;6.32;3.80;;;10.90;99.90;;;;;;5087595;28;20028;-76
2022/11/15 10:49:31;;;;;;;5.13;3.65;;;11.00;99.90;;;;;;5087220;28;20031;-76
2022/11/15 10:52:11;;;;;;;6.80;3.60;;;11.10;99.90;;;;;;5085404;28;20423;-76
2022/11/15 10:54:58;;;;;;;5.35;3.90;;;11.20;99.90;;;;;;5083804;28;20024;-76
2022/11/15 10:57:35;;;;;;;5.10;3.22;;;11.20;99.90;;;;;;5085307;28;20547;-76
2022/11/15 11:00:06;;;;;;;5.65;2.92;;;11.10;99.90;;;;;;5085302;28;20100;-76
2022/11/15 11:02:39;;;;;;;4.03;3.15;;;11.20;99.90;;;;;;5085058;28;20503;-76
2022/11/15 11:05:24;;;;;;;3.92;3.20;;;11.20;99.90;;;;;;5084985;28;20112;-75
2022/11/15 11:07:58;;;;;;;6.18;2.72;;;11.30;99.90;;;;;;5084887;28;20044;-76
2022/11/15 11:10:27;;;;;;;4.47;3.53;;;11.40;99.90;;;;;;5083351;28;20472;-77
2022/11/15 11:12:57;;;;;;;4.50;3.80;;;11.60;99.90;;;;;;5084914;28;20032;-76
2022/11/15 11:15:27;;;;;;;7.78;4.35;;;11.60;99.90;;;;;;5084594;28;20293;-76
2022/11/15 11:18:03;;;;;;;5.80;3.90;;;11.60;99.90;;;;;;5084985;28;20416;-76
2022/11/15 11:20:41;;;;;;;38.45;17.67;;;11.70;99.90;;;;;;5083710;28;20471;-77
2022/11/15 11:23:12;;;;;;;10.80;6.57;;;11.70;99.90;;;;;;5089455;28;20020;-76
2022/11/15 11:25:53;;;;;;;7.05;5.00;;;11.90;99.90;;;;;;5089291;28;20020;-76
2022/11/15 11:28:31;;;;;;;5.15;3.40;;;12.00;99.90;;;;;;5090473;28;20281;-76
2022/11/15 11:31:08;;;;;;;6.60;4.28;;;12.20;99.90;;;;;;5090264;28;20036;-76
2022/11/15 11:34:10;;;;;;;6.18;3.58;;;12.30;99.90;;;;;;5090190;28;20030;-76
2022/11/15 11:36:57;;;;;;;4.95;3.67;;;12.40;99.90;;;;;;5034201;28;20049;-76
2022/11/15 11:39:39;;;;;;;4.20;3.35;;;12.20;99.90;;;;;;5090555;28;20071;-76
2022/11/15 11:42:29;;;;;;;5.63;4.57;;;12.30;99.90;;;;;;5089295;28;20027;-76
2022/11/15 11:45:09;;;;;;;5.18;3.75;;;12.40;99.90;;;;;;5088870;28;20492;-76
2022/11/15 11:48:12;;;;;;;7.03;3.60;;;12.30;99.90;;;;;;5090087;28;20088;-76
2022/11/15 11:50:39;;;;;;;9.05;3.47;;;12.40;99.90;;;;;;5063862;28;20062;-76
2022/11/15 11:53:22;;;;;;;6.97;3.78;;;12.30;99.90;;;;;;5090192;28;20369;-76
2022/11/15 11:56:12;;;;;;;6.13;4.50;;;12.20;99.90;;;;;;5090662;28;20090;-76
2022/11/15 11:58:45;;;;;;;5.53;3.45;;;11.90;99.90;;;;;;5078696;28;20055;-76
2022/11/15 12:01:25;;;;;;;8.68;3.78;;;11.70;99.90;;;;;;5090547;28;20035;-76
2022/11/15 12:04:11;;;;;;;6.43;4.25;;;11.60;99.90;;;;;;5090316;28;20028;-75
2022/11/15 12:06:47;;;;;;;7.90;3.72;;;11.40;99.90;;;;;;5089698;28;20021;-76
2022/11/15 12:09:51;;;;;;;4.63;3.25;;;11.20;99.90;;;;;;5089777;28;20032;-76
2022/11/15 12:12:31;;;;;;;6.82;3.45;;;11.20;99.90;;;;;;5089473;28;20071;-76
2022/11/15 12:15:16;;;;;;;4.75;3.53;;;11.20;99.90;;;;;;5089757;28;20108;-75
2022/11/15 12:17:42;;;;;;;3.72;3.00;;;11.30;99.90;;;;;;5089430;28;20051;-75
2022/11/15 12:20:27;;;;;;;5.47;3.95;;;11.30;99.90;;;;;;5105020;28;20028;-75
2022/11/15 12:23:15;;;;;;;3.92;3.35;;;11.20;99.90;;;;;;5089664;28;20023;-76
2022/11/15 12:25:47;;;;;;;4.68;3.10;;;11.30;99.90;;;;;;5089531;28;20499;-75
2022/11/15 12:28:29;;;;;;;4.57;3.10;;;11.30;99.90;;;;;;5089793;28;20032;-75
2022/11/15 12:31:03;;;;;;;8.30;3.67;;;11.40;99.90;;;;;;5089939;28;20024;-76
2022/11/15 12:33:38;;;;;;;5.03;3.47;;;11.50;99.90;;;;;;5087880;28;20036;-75
2022/11/15 12:36:34;;;;;;;8.63;3.47;;;11.60;99.90;;;;;;5089226;28;20105;-76
2022/11/15 12:39:07;;;;;;;7.82;4.32;;;11.70;99.90;;;;;;5084232;28;20585;-76
2022/11/15 12:41:36;;;;;;;5.10;3.17;;;11.90;99.90;;;;;;5089095;28;20028;-77
2022/11/15 12:44:02;;;;;;;5.03;3.08;;;11.90;99.90;;;;;;5089624;28;20116;-76
2022/11/15 12:46:28;;;;;;;4.88;3.17;;;12.00;99.90;;;;;;5090130;28;20028;-76
2022/11/15 12:48:55;;;;;;;5.45;2.83;;;12.10;99.90;;;;;;5089299;28;20051;-76
2022/11/15 12:51:46;;;;;;;5.68;3.20;;;12.20;99.90;;;;;;5088995;28;20098;-76
2022/11/15 12:54:21;;;;;;;3.50;2.95;;;12.20;99.90;;;;;;5081500;28;20032;-76
2022/11/15 12:57:07;;;;;;;4.13;2.75;;;12.20;99.90;;;;;;5088948;28;20024;-76
2022/11/15 12:59:52;;;;;;;6.68;2.88;;;12.20;99.90;;;;;;5089054;28;20440;-76
2022/11/15 13:02:26;;;;;;;4.75;2.63;;;12.20;99.90;;;;;;5088888;28;20507;-76
2022/11/15 13:04:55;;;;;;;4.63;2.70;;;12.10;99.90;;;;;;5088981;28;20020;-76
2022/11/15 13:07:41;;;;;;;5.30;2.72;;;12.10;99.90;;;;;;5088629;28;20032;-75
2022/11/15 13:10:10;;;;;;;5.40;2.33;;;11.90;99.90;;;;;;5088309;28;20028;-75
2022/11/15 13:12:41;;;;;;;2.90;2.13;;;11.90;99.90;;;;;;5089395;28;20028;-75
2022/11/15 13:15:13;;;;;;;3.25;2.78;;;12.00;99.90;;;;;;5085672;28;20020;-77
2022/11/15 13:18:27;;;;;;;3.17;2.10;;;12.00;99.90;;;;;;5087084;28;20040;-76
2022/11/15 13:20:55;;;;;;;2.13;1.92;;;11.80;99.90;;;;;;5079288;28;20024;-77
2022/11/15 13:23:22;;;;;;;2.35;2.00;;;11.80;99.90;;;;;;5088986;28;20028;-78